createdAt,value
2023-11-13T00:02:11.362Z,95.80
2023-11-13T00:04:38.416Z,95.80
2023-11-13T00:07:05.672Z,95.80
2023-11-13T00:09:32.636Z,95.80
2023-11-13T00:11:59.734Z,95.80
2023-11-13T00:14:26.584Z,95.80
2023-11-13T00:16:53.591Z,95.80
2023-11-13T00:19:20.652Z,95.70
2023-11-13T00:21:48.107Z,95.70
2023-11-13T00:24:15.016Z,95.70
2023-11-13T00:26:41.896Z,95.70
2023-11-13T00:29:08.776Z,95.70
2023-11-13T00:31:36.138Z,95.70
2023-11-13T00:34:03.188Z,95.70
2023-11-13T00:36:30.106Z,95.70
2023-11-13T00:38:56.947Z,95.70
2023-11-13T00:41:23.837Z,95.70
2023-11-13T00:43:50.669Z,95.70
2023-11-13T00:46:17.588Z,95.70
2023-11-13T00:48:45.809Z,95.70
2023-11-13T00:51:15.157Z,96.00
2023-11-13T00:53:42.272Z,95.70
2023-11-13T00:56:09.263Z,95.70
2023-11-13T00:58:37.095Z,95.60
2023-11-13T01:01:07.552Z,95.70
2023-11-13T01:03:34.863Z,95.80
2023-11-13T01:06:02.087Z,95.70
2023-11-13T01:08:28.867Z,95.80
2023-11-13T01:10:55.833Z,95.80
2023-11-13T01:13:22.799Z,95.70
2023-11-13T01:15:55.715Z,95.70
2023-11-13T01:18:24.645Z,95.80
2023-11-13T01:20:51.615Z,95.70
2023-11-13T01:23:18.560Z,95.70
2023-11-13T01:25:48.822Z,95.70
2023-11-13T01:28:17.139Z,95.70
2023-11-13T01:30:44.051Z,95.70
2023-11-13T01:33:11.041Z,95.70
2023-11-13T01:35:37.986Z,95.70
2023-11-13T01:38:04.830Z,95.70
2023-11-13T01:40:32.925Z,95.80
2023-11-13T01:42:59.822Z,95.70
2023-11-13T01:45:26.756Z,95.80
2023-11-13T01:47:53.687Z,95.90
2023-11-13T01:50:20.783Z,95.70
2023-11-13T01:52:47.704Z,95.70
2023-11-13T01:55:14.831Z,96.00
2023-11-13T01:57:44.402Z,95.70
2023-11-13T02:00:11.894Z,95.70
2023-11-13T02:02:38.839Z,95.80
2023-11-13T02:05:06.921Z,95.80
2023-11-13T02:07:34.892Z,95.70
2023-11-13T02:10:02.125Z,95.70
2023-11-13T02:12:29.210Z,95.70
2023-11-13T02:14:56.103Z,95.70
2023-11-13T02:17:22.873Z,95.70
2023-11-13T02:19:49.770Z,95.70
2023-11-13T02:22:16.758Z,95.70
2023-11-13T02:24:43.564Z,95.70
2023-11-13T02:27:10.370Z,95.70
2023-11-13T02:29:37.668Z,95.60
2023-11-13T02:32:04.697Z,95.60
2023-11-13T02:34:31.657Z,95.60
2023-11-13T02:36:58.602Z,95.60
2023-11-13T02:39:25.718Z,95.60
2023-11-13T02:41:53.120Z,95.70
2023-11-13T02:44:20.597Z,95.60
2023-11-13T02:46:47.544Z,95.60
2023-11-13T02:49:14.557Z,95.70
2023-11-13T02:51:43.187Z,95.70
2023-11-13T02:54:10.063Z,95.60
2023-11-13T02:56:36.902Z,95.60
2023-11-13T02:59:03.875Z,95.60
2023-11-13T03:03:58.177Z,95.60
2023-11-13T03:06:25.106Z,95.50
2023-11-13T03:08:51.945Z,95.50
2023-11-13T03:11:18.835Z,95.60
2023-11-13T03:13:45.723Z,95.60
2023-11-13T03:16:12.745Z,95.50
2023-11-13T03:18:39.639Z,95.60
2023-11-13T03:21:08.252Z,95.50
2023-11-13T03:23:35.640Z,95.50
2023-11-13T03:26:04.786Z,95.50
2023-11-13T03:28:32.175Z,95.50
2023-11-13T03:30:59.316Z,95.50
2023-11-13T03:33:26.476Z,95.50
2023-11-13T03:35:53.354Z,95.50
2023-11-13T03:38:20.186Z,95.50
2023-11-13T03:40:46.987Z,95.50
2023-11-13T03:43:13.929Z,95.50
2023-11-13T03:45:40.727Z,95.60
2023-11-13T03:48:07.607Z,95.40
2023-11-13T03:50:34.510Z,95.50
2023-11-13T03:53:01.326Z,95.50
2023-11-13T03:55:28.303Z,95.50
2023-11-13T03:57:55.301Z,95.40
2023-11-13T04:00:22.488Z,95.40
2023-11-13T04:02:49.878Z,95.40
2023-11-13T04:05:17.082Z,95.40
2023-11-13T04:07:43.936Z,95.40
2023-11-13T04:10:16.494Z,95.50
2023-11-13T04:12:43.812Z,95.40
2023-11-13T04:15:11.317Z,95.40
2023-11-13T04:17:38.536Z,95.40
2023-11-13T04:20:08.550Z,95.50
2023-11-13T04:22:35.526Z,95.50
2023-11-13T04:25:03.541Z,95.50
2023-11-13T04:27:30.631Z,95.30
2023-11-13T04:29:57.537Z,95.40
2023-11-13T04:32:25.157Z,95.40
2023-11-13T04:34:52.275Z,95.40
2023-11-13T04:37:20.128Z,95.50
2023-11-13T04:39:47.369Z,95.40
2023-11-13T04:42:14.376Z,95.40
2023-11-13T04:44:41.438Z,95.40
2023-11-13T04:47:09.635Z,95.30
2023-11-13T04:49:36.855Z,95.30
2023-11-13T04:52:04.006Z,95.30
2023-11-13T04:54:30.917Z,95.40
2023-11-13T04:56:58.872Z,95.40
2023-11-13T04:59:25.940Z,95.40
2023-11-13T05:01:53.684Z,95.30
2023-11-13T05:04:20.779Z,95.30
2023-11-13T05:06:47.618Z,95.30
2023-11-13T05:09:15.759Z,95.30
2023-11-13T05:11:42.653Z,95.30
2023-11-13T05:14:09.548Z,95.20
2023-11-13T05:16:36.537Z,95.20
2023-11-13T05:19:04.724Z,95.20
2023-11-13T05:21:31.748Z,95.20
2023-11-13T05:23:59.185Z,95.20
2023-11-13T05:26:27.226Z,95.20
2023-11-13T05:28:55.091Z,95.10
2023-11-13T05:31:22.260Z,95.20
2023-11-13T05:33:49.214Z,95.10
2023-11-13T05:36:16.109Z,95.10
2023-11-13T05:38:46.055Z,95.10
2023-11-13T05:41:13.032Z,95.20
2023-11-13T05:43:39.903Z,95.10
2023-11-13T05:46:07.547Z,95.20
2023-11-13T05:48:34.918Z,95.10
2023-11-13T05:51:01.950Z,95.20
2023-11-13T05:53:28.811Z,95.20
2023-11-13T05:55:57.727Z,95.20
2023-11-13T05:58:25.078Z,95.30
2023-11-13T06:00:52.015Z,95.20
2023-11-13T06:03:19.052Z,95.10
2023-11-13T06:05:46.725Z,95.10
2023-11-13T06:08:13.683Z,95.20
2023-11-13T06:10:40.808Z,95.10
2023-11-13T06:13:07.845Z,95.10
2023-11-13T06:15:37.717Z,95.10
2023-11-13T06:18:04.661Z,95.10
2023-11-13T06:20:31.544Z,95.00
2023-11-13T06:22:58.319Z,95.10
2023-11-13T06:25:25.156Z,95.10
2023-11-13T06:27:54.075Z,95.10
2023-11-13T06:30:20.952Z,95.10
2023-11-13T06:32:49.661Z,95.10
2023-11-13T06:35:19.438Z,95.10
2023-11-13T06:37:46.320Z,95.00
2023-11-13T06:40:18.315Z,95.00
2023-11-13T06:42:46.915Z,95.00
2023-11-13T06:45:15.073Z,95.00
2023-11-13T06:47:42.604Z,95.00
2023-11-13T06:50:09.703Z,94.90
2023-11-13T06:52:36.542Z,94.90
2023-11-13T06:55:06.081Z,94.90
2023-11-13T06:57:32.993Z,94.90
2023-11-13T06:59:59.772Z,94.90
2023-11-13T07:02:29.217Z,94.90
2023-11-13T07:04:56.276Z,95.00
2023-11-13T07:07:23.204Z,94.90
2023-11-13T07:09:50.093Z,95.00
2023-11-13T07:12:18.028Z,94.90
2023-11-13T07:14:44.939Z,94.90
2023-11-13T07:17:11.911Z,94.90
2023-11-13T07:19:39.737Z,94.80
2023-11-13T07:22:08.548Z,94.80
2023-11-13T07:24:38.064Z,94.80
2023-11-13T07:27:08.076Z,94.90
2023-11-13T07:29:36.372Z,94.80
2023-11-13T07:32:11.241Z,94.80
2023-11-13T07:34:39.578Z,94.80
2023-11-13T07:37:11.468Z,94.70
2023-11-13T07:39:49.118Z,94.80
2023-11-13T07:42:27.816Z,94.70
2023-11-13T07:45:07.037Z,94.70
2023-11-13T07:47:34.192Z,94.70
2023-11-13T07:50:02.223Z,94.60
2023-11-13T07:52:35.200Z,94.70
2023-11-13T07:55:02.904Z,94.70
2023-11-13T07:57:34.921Z,94.80
2023-11-13T08:00:02.492Z,94.80
2023-11-13T08:02:29.402Z,94.80
2023-11-13T08:05:03.570Z,94.80
2023-11-13T08:07:30.848Z,94.70
2023-11-13T08:09:58.667Z,94.70
2023-11-13T08:12:30.202Z,94.70
2023-11-13T08:15:00.046Z,94.70
2023-11-13T08:17:26.956Z,94.70
2023-11-13T08:19:53.819Z,94.70
2023-11-13T08:22:21.479Z,94.80
2023-11-13T08:24:48.325Z,94.80
2023-11-13T08:27:21.024Z,94.70
2023-11-13T08:29:47.942Z,94.80
2023-11-13T08:32:18.486Z,94.80
2023-11-13T08:34:45.391Z,94.80
2023-11-13T08:37:12.523Z,94.80
2023-11-13T08:39:40.014Z,94.90
2023-11-13T08:42:07.718Z,94.90
2023-11-13T08:44:36.248Z,95.00
2023-11-13T08:47:04.770Z,94.80
2023-11-13T08:49:34.719Z,94.90
2023-11-13T08:52:02.015Z,94.90
2023-11-13T08:54:29.544Z,94.90
2023-11-13T08:56:56.984Z,94.90
2023-11-13T08:59:24.287Z,95.00
2023-11-13T09:01:51.419Z,95.00
2023-11-13T09:04:18.645Z,95.10
2023-11-13T09:06:46.805Z,95.00
2023-11-13T09:09:13.785Z,95.10
2023-11-13T09:11:42.458Z,95.00
2023-11-13T09:14:12.337Z,95.10
2023-11-13T09:16:40.105Z,95.10
2023-11-13T09:19:07.622Z,95.00
2023-11-13T09:21:35.793Z,95.10
2023-11-13T09:24:03.330Z,95.20
2023-11-13T09:26:30.266Z,95.10
2023-11-13T09:28:57.194Z,95.20
2023-11-13T09:31:23.972Z,95.20
2023-11-13T09:33:50.810Z,95.20
2023-11-13T09:36:18.641Z,95.10
2023-11-13T09:38:45.547Z,95.20
2023-11-13T09:41:16.644Z,95.20
2023-11-13T09:43:43.617Z,95.20
2023-11-13T09:46:13.103Z,95.20
2023-11-13T09:49:00.333Z,95.20
2023-11-13T09:51:30.967Z,95.30
2023-11-13T09:53:59.324Z,95.30
2023-11-13T09:56:31.418Z,95.30
2023-11-13T09:58:59.271Z,95.30
2023-11-13T10:01:26.277Z,95.40
2023-11-13T10:03:53.260Z,95.60
2023-11-13T10:06:21.142Z,95.30
2023-11-13T10:08:48.432Z,95.30
2023-11-13T10:11:15.875Z,95.30
2023-11-13T10:13:42.832Z,95.30
2023-11-13T10:16:17.853Z,95.30
2023-11-13T10:18:44.920Z,95.40
2023-11-13T10:21:20.399Z,95.40
2023-11-13T10:23:51.201Z,95.40
2023-11-13T10:26:26.275Z,95.40
2023-11-13T10:28:53.147Z,95.40
2023-11-13T10:31:25.062Z,95.40
2023-11-13T10:34:03.632Z,95.40
2023-11-13T10:36:33.664Z,95.40
2023-11-13T10:39:01.048Z,95.40
2023-11-13T10:41:35.155Z,95.30
2023-11-13T10:44:19.978Z,95.40
2023-11-13T10:46:46.924Z,95.30
2023-11-13T10:49:14.130Z,95.40
2023-11-13T10:51:42.260Z,95.60
2023-11-13T10:54:09.850Z,95.30
2023-11-13T10:56:36.746Z,95.40
2023-11-13T10:59:04.617Z,95.40
2023-11-13T11:01:31.838Z,95.40
2023-11-13T11:03:59.730Z,95.40
2023-11-13T11:06:31.149Z,95.30
2023-11-13T11:08:58.435Z,95.30
2023-11-13T11:11:26.766Z,95.30
2023-11-13T11:13:58.088Z,95.30
2023-11-13T11:16:33.626Z,95.30
2023-11-13T11:19:22.027Z,95.30
2023-11-13T11:22:06.102Z,95.30
2023-11-13T11:24:39.477Z,95.40
2023-11-13T11:27:06.308Z,95.40
2023-11-13T11:29:42.167Z,95.40
2023-11-13T11:32:15.333Z,95.40
2023-11-13T11:34:43.482Z,95.40
2023-11-13T11:37:17.721Z,95.40
2023-11-13T11:39:48.948Z,95.40
2023-11-13T11:42:23.379Z,95.40
2023-11-13T11:44:57.740Z,95.30
2023-11-13T11:47:27.237Z,95.40
2023-11-13T11:50:13.499Z,95.40
2023-11-13T11:52:42.801Z,95.50
2023-11-13T11:55:14.207Z,95.50
2023-11-13T11:57:45.207Z,95.50
2023-11-13T12:00:17.263Z,95.50
2023-11-13T12:02:45.198Z,95.50
2023-11-13T12:05:13.239Z,95.50
2023-11-13T12:07:40.452Z,95.50
2023-11-13T12:10:09.657Z,95.50
2023-11-13T12:12:40.070Z,95.50
2023-11-13T12:15:08.427Z,95.60
2023-11-13T12:17:38.965Z,95.60
2023-11-13T12:20:19.705Z,95.60
2023-11-13T12:22:49.247Z,95.60
2023-11-13T12:25:16.696Z,95.70
2023-11-13T12:27:44.776Z,95.70
2023-11-13T12:30:18.469Z,95.60
2023-11-13T12:32:48.226Z,95.60
2023-11-13T12:35:18.816Z,95.70
2023-11-13T12:37:46.889Z,95.70
2023-11-13T12:40:15.006Z,95.70
2023-11-13T12:42:42.171Z,95.70
2023-11-13T12:45:11.726Z,95.70
2023-11-13T12:47:38.698Z,95.70
2023-11-13T12:50:05.803Z,95.60
2023-11-13T12:52:32.670Z,95.70
2023-11-13T12:55:01.876Z,95.70
2023-11-13T12:57:28.805Z,95.70
2023-11-13T12:59:55.870Z,95.70
2023-11-13T13:02:23.033Z,95.70
2023-11-13T13:04:59.106Z,95.70
2023-11-13T13:07:27.480Z,95.70
2023-11-13T13:09:54.314Z,95.80
2023-11-13T13:12:21.103Z,95.70
2023-11-13T13:14:48.390Z,95.70
2023-11-13T13:17:16.763Z,95.70
2023-11-13T13:19:43.675Z,95.80
2023-11-13T13:22:14.081Z,95.70
2023-11-13T13:24:41.696Z,95.70
2023-11-13T13:27:10.878Z,95.70
2023-11-13T13:29:40.024Z,95.80
2023-11-13T13:32:06.994Z,95.80
2023-11-13T13:34:33.841Z,95.70
2023-11-13T13:37:01.154Z,95.70
2023-11-13T13:39:28.048Z,95.80
2023-11-13T13:41:55.754Z,95.80
2023-11-13T13:44:23.506Z,95.70
2023-11-13T13:46:50.460Z,95.80
2023-11-13T13:49:18.013Z,95.70
2023-11-13T13:51:45.146Z,95.80
2023-11-13T13:54:13.022Z,95.80
2023-11-13T13:56:43.289Z,95.70
2023-11-13T13:59:13.029Z,95.80
2023-11-13T14:01:39.972Z,95.80
2023-11-13T14:04:07.258Z,95.80
2023-11-13T14:06:35.615Z,95.80
2023-11-13T14:09:04.229Z,95.80
2023-11-13T14:11:39.303Z,95.80
2023-11-13T14:14:10.979Z,95.80
2023-11-13T14:16:38.018Z,95.80
2023-11-13T14:19:08.249Z,95.80
2023-11-13T14:21:37.083Z,95.80
2023-11-13T14:24:04.653Z,95.80
2023-11-13T14:26:31.894Z,95.80
2023-11-13T14:28:58.925Z,95.80
2023-11-13T14:31:25.840Z,95.80
2023-11-13T14:33:53.106Z,95.80
2023-11-13T14:36:20.077Z,95.80
2023-11-13T14:38:47.492Z,95.80
2023-11-13T14:41:14.410Z,95.80
2023-11-13T14:43:41.917Z,95.80
2023-11-13T14:46:09.180Z,95.90
2023-11-13T14:48:36.150Z,95.90
2023-11-13T14:51:03.080Z,96.10
2023-11-13T14:53:29.910Z,95.90
2023-11-13T14:55:56.927Z,95.90
2023-11-13T14:58:23.895Z,95.90
2023-11-13T15:00:50.906Z,95.90
2023-11-13T15:03:17.854Z,95.90
2023-11-13T15:05:45.374Z,95.90
2023-11-13T15:08:12.861Z,96.00
2023-11-13T15:10:39.806Z,95.90
2023-11-13T15:13:09.791Z,95.90
2023-11-13T15:15:36.764Z,96.00
2023-11-13T15:18:05.185Z,95.90
2023-11-13T15:20:33.211Z,96.00
2023-11-13T15:23:15.152Z,95.90
2023-11-13T15:25:49.639Z,95.90
2023-11-13T15:28:16.590Z,96.00
2023-11-13T15:30:43.745Z,96.00
2023-11-13T15:33:11.190Z,96.00
2023-11-13T15:35:39.012Z,96.00
2023-11-13T15:38:06.013Z,96.00
2023-11-13T15:40:34.281Z,96.00
2023-11-13T15:43:02.440Z,96.00
2023-11-13T15:45:29.570Z,96.00
2023-11-13T15:47:56.510Z,96.00
2023-11-13T15:50:23.586Z,96.00
2023-11-13T15:52:50.850Z,96.00
2023-11-13T15:55:17.916Z,96.00
2023-11-13T15:57:45.325Z,96.00
2023-11-13T16:00:13.882Z,96.00
2023-11-13T16:02:41.988Z,96.00
2023-11-13T16:05:10.390Z,96.00
2023-11-13T16:07:37.737Z,96.00
2023-11-13T16:10:05.247Z,96.00
2023-11-13T16:12:32.617Z,96.00
2023-11-13T16:15:05.795Z,96.00
2023-11-13T16:17:34.738Z,96.10
2023-11-13T16:20:04.807Z,96.10
2023-11-13T16:22:33.229Z,96.00
2023-11-13T16:25:01.445Z,96.10
2023-11-13T16:27:28.823Z,96.10
2023-11-13T16:29:55.922Z,96.10
2023-11-13T16:32:22.909Z,96.10
2023-11-13T16:34:49.830Z,96.10
2023-11-13T16:37:16.639Z,96.10
2023-11-13T16:39:43.508Z,96.10
2023-11-13T16:42:11.787Z,96.20
2023-11-13T16:44:38.667Z,96.20
2023-11-13T16:47:05.968Z,96.10
2023-11-13T16:49:32.842Z,96.10
2023-11-13T16:52:01.515Z,96.10
2023-11-13T16:54:28.804Z,96.10
2023-11-13T16:56:56.501Z,96.10
2023-11-13T16:59:23.322Z,96.10
2023-11-13T17:01:50.389Z,96.10
2023-11-13T17:04:17.692Z,96.10
2023-11-13T17:06:45.617Z,96.10
2023-11-13T17:09:17.029Z,96.10
2023-11-13T17:11:45.232Z,96.10
2023-11-13T17:14:13.441Z,96.10
2023-11-13T17:16:42.523Z,96.10
2023-11-13T17:19:10.150Z,96.10
2023-11-13T17:21:38.951Z,96.20
2023-11-13T17:24:06.065Z,96.10
2023-11-13T17:26:32.964Z,96.20
2023-11-13T17:28:59.791Z,96.10
2023-11-13T17:31:26.843Z,96.10
2023-11-13T17:33:53.789Z,96.20
2023-11-13T17:36:21.306Z,96.10
2023-11-13T17:38:48.866Z,96.20
2023-11-13T17:41:15.936Z,96.20
2023-11-13T17:43:42.858Z,96.20
2023-11-13T17:46:10.265Z,96.10
2023-11-13T17:48:37.720Z,96.40
2023-11-13T17:51:06.317Z,96.10
2023-11-13T17:53:33.294Z,96.20
2023-11-13T17:56:01.215Z,96.10
2023-11-13T17:58:28.860Z,96.10
2023-11-13T18:00:55.974Z,96.10
2023-11-13T18:03:22.991Z,96.10
2023-11-13T18:05:54.261Z,96.10
2023-11-13T18:08:24.141Z,96.10
2023-11-13T18:10:53.534Z,96.10
2023-11-13T18:13:21.861Z,96.10
2023-11-13T18:15:49.571Z,96.20
2023-11-13T18:18:17.162Z,96.10
2023-11-13T18:20:44.945Z,96.20
2023-11-13T18:23:12.088Z,96.10
2023-11-13T18:25:38.969Z,96.20
2023-11-13T18:28:11.300Z,96.10
2023-11-13T18:30:38.675Z,96.20
2023-11-13T18:33:05.695Z,96.20
2023-11-13T18:35:32.790Z,96.10
2023-11-13T18:38:01.846Z,96.10
2023-11-13T18:40:29.377Z,96.10
2023-11-13T18:42:56.757Z,96.10
2023-11-13T18:45:23.725Z,96.10
2023-11-13T18:47:50.656Z,96.20
2023-11-13T18:50:17.604Z,96.20
2023-11-13T18:52:44.559Z,96.20
2023-11-13T18:55:11.343Z,96.20
2023-11-13T18:57:38.746Z,96.10
2023-11-13T19:00:06.675Z,96.20
2023-11-13T19:02:33.640Z,96.20
2023-11-13T19:05:00.576Z,96.20
2023-11-13T19:07:27.658Z,96.10
2023-11-13T19:09:55.683Z,96.10
2023-11-13T19:12:22.662Z,96.10
2023-11-13T19:14:49.590Z,96.20
2023-11-13T19:17:16.703Z,96.10
2023-11-13T19:19:43.647Z,96.10
2023-11-13T19:22:10.556Z,96.20
2023-11-13T19:24:37.371Z,96.10
2023-11-13T19:27:04.356Z,96.10
2023-11-13T19:29:31.291Z,96.20
2023-11-13T19:32:00.989Z,96.20
2023-11-13T19:34:29.956Z,96.10
2023-11-13T19:36:56.796Z,96.20
2023-11-13T19:39:23.761Z,96.10
2023-11-13T19:41:50.631Z,96.20
2023-11-13T19:44:17.891Z,96.20
2023-11-13T19:46:45.521Z,96.10
2023-11-13T19:49:12.467Z,96.20
2023-11-13T19:51:39.699Z,96.10
2023-11-13T19:54:07.225Z,96.10
2023-11-13T19:56:34.377Z,96.10
2023-11-13T19:59:02.887Z,96.10
2023-11-13T20:01:29.921Z,96.10
2023-11-13T20:03:57.368Z,96.10
2023-11-13T20:06:26.090Z,96.10
2023-11-13T20:08:53.144Z,96.20
2023-11-13T20:11:21.152Z,96.10
2023-11-13T20:13:48.361Z,96.20
2023-11-13T20:16:15.362Z,96.10
2023-11-13T20:18:42.233Z,96.10
2023-11-13T20:21:09.825Z,96.20
2023-11-13T20:27:11.860Z,96.20
2023-11-13T20:29:38.685Z,96.10
2023-11-13T20:32:05.822Z,96.10
2023-11-13T20:34:32.843Z,96.10
2023-11-13T20:36:59.717Z,96.10
2023-11-13T20:39:26.563Z,96.10
2023-11-13T20:41:55.891Z,96.10
2023-11-13T20:44:23.344Z,96.10
2023-11-13T20:46:50.326Z,96.20
2023-11-13T20:49:17.238Z,96.10
2023-11-13T20:51:44.222Z,96.10
2023-11-13T20:54:11.068Z,96.10
2023-11-13T20:56:38.689Z,96.10
2023-11-13T20:59:05.876Z,96.10
2023-11-13T21:01:32.988Z,96.20
2023-11-13T21:04:00.559Z,96.20
2023-11-13T21:06:27.482Z,96.20
2023-11-13T21:08:54.884Z,96.20
2023-11-13T21:11:21.746Z,96.10
2023-11-13T21:13:49.904Z,96.10
2023-11-13T21:16:16.848Z,96.10
2023-11-13T21:18:43.711Z,96.10
2023-11-13T21:21:12.139Z,96.20
2023-11-13T21:23:39.114Z,96.10
2023-11-13T21:26:08.049Z,96.10
2023-11-13T21:28:36.137Z,96.20
2023-11-13T21:31:03.565Z,96.10
2023-11-13T21:33:30.456Z,96.10
2023-11-13T21:35:57.914Z,96.20
2023-11-13T21:38:24.727Z,96.10
2023-11-13T21:40:51.627Z,96.10
2023-11-13T21:43:18.933Z,96.10
2023-11-13T21:45:45.816Z,96.10
2023-11-13T21:48:12.804Z,96.10
2023-11-13T21:50:40.593Z,96.10
2023-11-13T21:53:07.424Z,96.10
2023-11-13T21:55:34.617Z,96.20
2023-11-13T21:58:03.271Z,96.10
2023-11-13T22:00:30.306Z,96.20
2023-11-13T22:02:57.685Z,96.10
2023-11-13T22:05:27.737Z,96.10
2023-11-13T22:07:54.559Z,96.10
2023-11-13T22:10:22.087Z,96.10
2023-11-13T22:12:48.956Z,96.10
2023-11-13T22:15:17.227Z,96.10
2023-11-13T22:17:45.352Z,96.00
2023-11-13T22:20:12.360Z,96.00
2023-11-13T22:22:40.063Z,96.10
2023-11-13T22:25:07.246Z,96.10
2023-11-13T22:27:34.256Z,96.10
2023-11-13T22:30:01.414Z,96.10
2023-11-13T22:32:28.435Z,96.00
2023-11-13T22:34:55.397Z,96.10
2023-11-13T22:37:22.529Z,96.10
2023-11-13T22:39:49.867Z,96.10
2023-11-13T22:42:16.869Z,96.10
2023-11-13T22:44:43.846Z,96.10
2023-11-13T22:47:11.980Z,96.10
2023-11-13T22:49:39.753Z,96.10
2023-11-13T22:52:06.781Z,96.10
2023-11-13T22:54:36.520Z,96.10
2023-11-13T22:57:04.611Z,96.10
2023-11-13T22:59:31.382Z,96.20
2023-11-13T23:01:58.365Z,96.10
2023-11-13T23:04:25.602Z,96.10
2023-11-13T23:06:52.436Z,96.10
2023-11-13T23:09:20.172Z,96.00
2023-11-13T23:11:47.769Z,96.10
2023-11-13T23:14:14.707Z,96.10
2023-11-13T23:16:41.680Z,96.10
2023-11-13T23:19:08.708Z,96.10
2023-11-13T23:21:35.547Z,96.10
2023-11-13T23:24:04.364Z,96.00
2023-11-13T23:26:31.211Z,96.00
2023-11-13T23:28:58.198Z,96.10
2023-11-13T23:31:25.835Z,96.00
2023-11-13T23:33:53.763Z,96.10
2023-11-13T23:36:20.704Z,96.00
2023-11-13T23:38:47.561Z,96.10
2023-11-13T23:41:14.398Z,96.10
2023-11-13T23:43:41.242Z,96.10
2023-11-13T23:46:08.152Z,96.10
2023-11-13T23:48:34.977Z,96.00
2023-11-13T23:51:02.409Z,96.10
2023-11-13T23:53:29.288Z,96.10
2023-11-13T23:55:57.107Z,96.10
2023-11-13T23:58:24.183Z,96.00
